sensor_id;sensor_type;location;lat;lon;timestamp;pressure;altitude;pressure_sealevel;temperature;humidity
62791;BME280;48830;53.426;10.300;2022-09-09T00:00:18;100838.78;;;14.72;100.00
62791;BME280;48830;53.426;10.300;2022-09-09T00:02:54;100833.63;;;14.72;100.00
62791;BME280;48830;53.426;10.300;2022-09-09T00:08:20;100833.59;;;14.78;100.00
62791;BME280;48830;53.426;10.300;2022-09-09T00:11:08;100829.28;;;14.77;100.00
62791;BME280;48830;53.426;10.300;2022-09-09T00:13:42;100836.19;;;14.78;100.00
62791;BME280;48830;53.426;10.300;2022-09-09T00:16:17;100832.75;;;14.76;100.00
62791;BME280;48830;53.426;10.300;2022-09-09T00:19:00;100837.94;;;14.76;100.00
62791;BME280;48830;53.426;10.300;2022-09-09T00:21:37;100831.00;;;14.78;100.00
62791;BME280;48830;53.426;10.300;2022-09-09T00:24:28;100829.31;;;14.80;100.00
62791;BME280;48830;53.426;10.300;2022-09-09T00:27:21;100827.56;;;14.82;100.00
62791;BME280;48830;53.426;10.300;2022-09-09T00:29:54;100823.25;;;14.81;100.00
62791;BME280;48830;53.426;10.300;2022-09-09T00:32:24;100827.56;;;14.76;100.00
62791;BME280;48830;53.426;10.300;2022-09-09T00:34:56;100829.28;;;14.77;100.00
62791;BME280;48830;53.426;10.300;2022-09-09T00:37:23;100829.28;;;14.77;100.00
62791;BME280;48830;53.426;10.300;2022-09-09T00:39:53;100829.28;;;14.74;100.00
62791;BME280;48830;53.426;10.300;2022-09-09T00:42:39;100835.34;;;14.72;100.00
62791;BME280;48830;53.426;10.300;2022-09-09T00:45:15;100832.75;;;14.67;100.00
62791;BME280;48830;53.426;10.300;2022-09-09T00:47:50;100826.72;;;14.66;100.00
62791;BME280;48830;53.426;10.300;2022-09-09T00:56:11;100829.31;;;14.65;100.00
62791;BME280;48830;53.426;10.300;2022-09-09T00:58:38;100826.72;;;14.63;100.00
62791;BME280;48830;53.426;10.300;2022-09-09T01:01:07;100819.81;;;14.61;100.00
62791;BME280;48830;53.426;10.300;2022-09-09T01:03:42;100831.03;;;14.63;100.00
62791;BME280;48830;53.426;10.300;2022-09-09T01:06:33;100825.00;;;14.61;100.00
62791;BME280;48830;53.426;10.300;2022-09-09T01:11:43;100827.56;;;14.58;100.00
62791;BME280;48830;53.426;10.300;2022-09-09T01:25:21;100820.72;;;14.48;100.00
62791;BME280;48830;53.426;10.300;2022-09-09T01:28:10;100828.41;;;14.46;100.00
62791;BME280;48830;53.426;10.300;2022-09-09T01:30:39;100824.97;;;14.44;100.00
62791;BME280;48830;53.426;10.300;2022-09-09T01:33:13;100818.09;;;14.37;100.00
62791;BME280;48830;53.426;10.300;2022-09-09T01:35:54;100812.03;;;14.36;100.00
62791;BME280;48830;53.426;10.300;2022-09-09T01:38:25;100816.38;;;14.37;100.00
62791;BME280;48830;53.426;10.300;2022-09-09T01:40:52;100820.66;;;14.32;100.00
62791;BME280;48830;53.426;10.300;2022-09-09T01:43:23;100818.94;;;14.34;100.00
62791;BME280;48830;53.426;10.300;2022-09-09T01:45:56;100812.03;;;14.33;100.00
62791;BME280;48830;53.426;10.300;2022-09-09T01:48:24;100815.50;;;14.34;100.00
62791;BME280;48830;53.426;10.300;2022-09-09T01:50:59;100812.91;;;14.32;100.00
62791;BME280;48830;53.426;10.300;2022-09-09T01:53:25;100808.56;;;14.31;100.00
62791;BME280;48830;53.426;10.300;2022-09-09T01:56:16;100818.91;;;14.31;100.00
62791;BME280;48830;53.426;10.300;2022-09-09T02:03:57;100815.50;;;14.26;100.00
62791;BME280;48830;53.426;10.300;2022-09-09T02:06:31;100823.22;;;14.20;100.00
62791;BME280;48830;53.426;10.300;2022-09-09T02:09:10;100812.03;;;14.21;100.00
62791;BME280;48830;53.426;10.300;2022-09-09T02:11:39;100818.06;;;14.18;100.00
62791;BME280;48830;53.426;10.300;2022-09-09T02:14:24;100821.53;;;14.16;100.00
62791;BME280;48830;53.426;10.300;2022-09-09T02:16:55;100829.28;;;14.16;100.00
62791;BME280;48830;53.426;10.300;2022-09-09T02:19:32;100821.50;;;14.11;100.00
62791;BME280;48830;53.426;10.300;2022-09-09T02:22:23;100821.50;;;14.11;100.00
62791;BME280;48830;53.426;10.300;2022-09-09T02:24:52;100825.81;;;14.12;100.00
62791;BME280;48830;53.426;10.300;2022-09-09T02:27:25;100819.78;;;14.10;100.00
62791;BME280;48830;53.426;10.300;2022-09-09T02:29:51;100812.00;;;14.09;100.00
62791;BME280;48830;53.426;10.300;2022-09-09T02:32:27;100812.00;;;14.09;100.00
62791;BME280;48830;53.426;10.300;2022-09-09T02:35:01;100813.72;;;14.08;100.00
62791;BME280;48830;53.426;10.300;2022-09-09T02:37:31;100813.75;;;14.07;100.00
62791;BME280;48830;53.426;10.300;2022-09-09T02:40:02;100813.72;;;14.04;100.00
62791;BME280;48830;53.426;10.300;2022-09-09T02:42:29;100820.63;;;14.02;100.00
62791;BME280;48830;53.426;10.300;2022-09-09T02:44:56;100814.59;;;14.01;100.00
62791;BME280;48830;53.426;10.300;2022-09-09T02:47:30;100812.03;;;14.00;100.00
62791;BME280;48830;53.426;10.300;2022-09-09T02:55:45;100816.28;;;13.93;100.00
62791;BME280;48830;53.426;10.300;2022-09-09T02:58:16;100818.88;;;13.87;100.00
62791;BME280;48830;53.426;10.300;2022-09-09T03:00:45;100816.28;;;13.84;100.00
62791;BME280;48830;53.426;10.300;2022-09-09T03:03:12;100820.59;;;13.86;100.00
62791;BME280;48830;53.426;10.300;2022-09-09T03:05:38;100812.84;;;13.85;100.00
62791;BME280;48830;53.426;10.300;2022-09-09T03:08:04;100816.28;;;13.84;100.00
62791;BME280;48830;53.426;10.300;2022-09-09T03:10:31;100818.00;;;13.82;100.00
62791;BME280;48830;53.426;10.300;2022-09-09T03:12:57;100817.13;;;13.80;100.00
62791;BME280;48830;53.426;10.300;2022-09-09T03:15:25;100818.88;;;13.78;100.00
62791;BME280;48830;53.426;10.300;2022-09-09T03:17:54;100815.38;;;13.77;100.00
62791;BME280;48830;53.426;10.300;2022-09-09T03:20:21;100827.44;;;13.75;100.00
62791;BME280;48830;53.426;10.300;2022-09-09T03:22:46;100822.28;;;13.74;100.00
62791;BME280;48830;53.426;10.300;2022-09-09T03:25:12;100825.72;;;13.74;100.00
62791;BME280;48830;53.426;10.300;2022-09-09T03:27:38;100825.72;;;13.71;100.00
62791;BME280;48830;53.426;10.300;2022-09-09T03:30:04;100817.97;;;13.70;100.00
62791;BME280;48830;53.426;10.300;2022-09-09T03:32:30;100817.09;;;13.69;100.00
62791;BME280;48830;53.426;10.300;2022-09-09T03:34:56;100817.09;;;13.69;100.00
62791;BME280;48830;53.426;10.300;2022-09-09T03:37:23;100824.84;;;13.61;100.00
62791;BME280;48830;53.426;10.300;2022-09-09T03:39:49;100829.13;;;13.64;100.00
62791;BME280;48830;53.426;10.300;2022-09-09T03:42:16;100829.13;;;13.65;100.00
62791;BME280;48830;53.426;10.300;2022-09-09T03:44:46;100825.69;;;13.63;100.00
62791;BME280;48830;53.426;10.300;2022-09-09T03:47:20;100827.41;;;13.60;100.00
62791;BME280;48830;53.426;10.300;2022-09-09T03:49:48;100829.13;;;13.61;100.00
62791;BME280;48830;53.426;10.300;2022-09-09T03:52:14;100829.97;;;13.60;100.00
62791;BME280;48830;53.426;10.300;2022-09-09T03:54:41;100825.69;;;13.60;100.00
62791;BME280;48830;53.426;10.300;2022-09-09T03:57:09;100831.72;;;13.64;100.00
62791;BME280;48830;53.426;10.300;2022-09-09T03:59:34;100839.44;;;13.59;100.00
62791;BME280;48830;53.426;10.300;2022-09-09T04:02:01;100834.28;;;13.61;100.00
62791;BME280;48830;53.426;10.300;2022-09-09T04:04:27;100834.28;;;13.61;100.00
62791;BME280;48830;53.426;10.300;2022-09-09T04:06:53;100830.00;;;13.61;100.00
62791;BME280;48830;53.426;10.300;2022-09-09T04:09:19;100833.41;;;13.60;100.00
62791;BME280;48830;53.426;10.300;2022-09-09T04:11:44;100836.88;;;13.59;100.00
62791;BME280;48830;53.426;10.300;2022-09-09T04:14:11;100834.28;;;13.58;100.00
62791;BME280;48830;53.426;10.300;2022-09-09T04:16:38;100833.44;;;13.57;100.00
62791;BME280;48830;53.426;10.300;2022-09-09T04:19:05;100838.56;;;13.56;100.00
62791;BME280;48830;53.426;10.300;2022-09-09T04:21:33;100837.72;;;13.60;100.00
62791;BME280;48830;53.426;10.300;2022-09-09T04:23:59;100842.91;;;13.60;100.00
62791;BME280;48830;53.426;10.300;2022-09-09T04:26:25;100845.50;;;13.63;100.00
62791;BME280;48830;53.426;10.300;2022-09-09T04:28:51;100850.66;;;13.64;100.00
62791;BME280;48830;53.426;10.300;2022-09-09T04:31:22;100852.38;;;13.65;100.00
62791;BME280;48830;53.426;10.300;2022-09-09T04:33:50;100857.56;;;13.65;100.00
62791;BME280;48830;53.426;10.300;2022-09-09T04:36:17;100861.00;;;13.66;100.00
62791;BME280;48830;53.426;10.300;2022-09-09T04:38:44;100863.59;;;13.69;100.00
62791;BME280;48830;53.426;10.300;2022-09-09T04:41:10;100857.56;;;13.72;100.00
62791;BME280;48830;53.426;10.300;2022-09-09T04:43:38;100853.28;;;13.72;100.00
62791;BME280;48830;53.426;10.300;2022-09-09T04:46:06;100859.31;;;13.74;100.00
62791;BME280;48830;53.426;10.300;2022-09-09T04:48:31;100856.72;;;13.77;100.00
62791;BME280;48830;53.426;10.300;2022-09-09T04:50:59;100855.03;;;13.79;100.00
62791;BME280;48830;53.426;10.300;2022-09-09T04:53:26;100854.16;;;13.82;100.00
62791;BME280;48830;53.426;10.300;2022-09-09T04:56:02;100855.91;;;13.86;100.00
62791;BME280;48830;53.426;10.300;2022-09-09T04:58:29;100847.31;;;13.88;100.00
62791;BME280;48830;53.426;10.300;2022-09-09T05:01:05;100848.16;;;13.87;100.00
62791;BME280;48830;53.426;10.300;2022-09-09T05:03:31;100858.50;;;13.90;100.00
62791;BME280;48830;53.426;10.300;2022-09-09T05:06:04;100856.78;;;13.89;100.00
62791;BME280;48830;53.426;10.300;2022-09-09T05:08:30;100861.09;;;13.92;100.00
62791;BME280;48830;53.426;10.300;2022-09-09T05:10:56;100857.63;;;13.93;100.00
62791;BME280;48830;53.426;10.300;2022-09-09T05:13:21;100864.56;;;13.94;100.00
62791;BME280;48830;53.426;10.300;2022-09-09T05:15:52;100867.13;;;13.96;100.00
62791;BME280;48830;53.426;10.300;2022-09-09T05:18:18;100861.94;;;13.99;100.00
62791;BME280;48830;53.426;10.300;2022-09-09T05:20:43;100868.88;;;14.00;100.00
62791;BME280;48830;53.426;10.300;2022-09-09T05:23:09;100874.03;;;14.03;100.00
62791;BME280;48830;53.426;10.300;2022-09-09T05:25:39;100870.59;;;14.04;100.00
62791;BME280;48830;53.426;10.300;2022-09-09T05:28:06;100875.78;;;14.07;100.00
62791;BME280;48830;53.426;10.300;2022-09-09T05:30:33;100870.63;;;14.10;100.00
62791;BME280;48830;53.426;10.300;2022-09-09T05:33:00;100874.94;;;14.12;100.00
62791;BME280;48830;53.426;10.300;2022-09-09T05:35:26;100876.66;;;14.18;100.00
62791;BME280;48830;53.426;10.300;2022-09-09T05:37:52;100874.09;;;14.21;100.00
62791;BME280;48830;53.426;10.300;2022-09-09T05:40:18;100875.81;;;14.25;100.00
62791;BME280;48830;53.426;10.300;2022-09-09T05:42:44;100884.44;;;14.30;100.00
62791;BME280;48830;53.426;10.300;2022-09-09T05:45:09;100883.56;;;14.36;100.00
62791;BME280;48830;53.426;10.300;2022-09-09T05:47:35;100881.00;;;14.40;100.00
62791;BME280;48830;53.426;10.300;2022-09-09T05:50:03;100890.50;;;14.44;100.00
62791;BME280;48830;53.426;10.300;2022-09-09T05:52:29;100892.28;;;14.64;100.00
62791;BME280;48830;53.426;10.300;2022-09-09T05:54:56;100895.72;;;14.58;100.00
62791;BME280;48830;53.426;10.300;2022-09-09T05:57:22;100903.47;;;14.57;100.00
62791;BME280;48830;53.426;10.300;2022-09-09T05:59:49;100898.31;;;14.60;100.00
62791;BME280;48830;53.426;10.300;2022-09-09T06:02:15;100903.47;;;14.63;100.00
62791;BME280;48830;53.426;10.300;2022-09-09T06:04:40;100905.22;;;14.64;100.00
62791;BME280;48830;53.426;10.300;2022-09-09T06:07:06;100894.84;;;14.67;100.00
62791;BME280;48830;53.426;10.300;2022-09-09T06:09:32;100908.63;;;14.63;100.00
62791;BME280;48830;53.426;10.300;2022-09-09T06:11:58;100906.06;;;14.64;100.00
62791;BME280;48830;53.426;10.300;2022-09-09T06:14:24;100911.25;;;14.66;100.00
62791;BME280;48830;53.426;10.300;2022-09-09T06:16:51;100913.84;;;14.69;100.00
62791;BME280;48830;53.426;10.300;2022-09-09T06:19:22;100919.00;;;14.72;100.00
62791;BME280;48830;53.426;10.300;2022-09-09T06:21:49;100916.41;;;14.72;100.00
62791;BME280;48830;53.426;10.300;2022-09-09T06:24:15;100912.09;;;14.77;100.00
62791;BME280;48830;53.426;10.300;2022-09-09T06:26:43;100916.41;;;14.80;100.00
62791;BME280;48830;53.426;10.300;2022-09-09T06:29:17;100914.69;;;14.82;100.00
62791;BME280;48830;53.426;10.300;2022-09-09T06:31:43;100923.34;;;14.85;100.00
62791;BME280;48830;53.426;10.300;2022-09-09T06:34:14;100913.81;;;14.90;100.00
62791;BME280;48830;53.426;10.300;2022-09-09T06:36:44;100920.72;;;14.94;100.00
62791;BME280;48830;53.426;10.300;2022-09-09T06:39:11;100924.19;;;15.03;100.00
62791;BME280;48830;53.426;10.300;2022-09-09T06:41:38;100918.13;;;15.07;100.00
62791;BME280;48830;53.426;10.300;2022-09-09T06:44:06;100924.16;;;15.09;100.00
62791;BME280;48830;53.426;10.300;2022-09-09T06:46:39;100923.31;;;15.17;100.00
62791;BME280;48830;53.426;10.300;2022-09-09T06:49:08;100919.84;;;15.25;100.00
62791;BME280;48830;53.426;10.300;2022-09-09T06:51:35;100920.69;;;15.20;100.00
62791;BME280;48830;53.426;10.300;2022-09-09T06:54:03;100918.09;;;15.36;100.00
62791;BME280;48830;53.426;10.300;2022-09-09T06:56:34;100918.06;;;15.45;100.00
62791;BME280;48830;53.426;10.300;2022-09-09T06:59:06;100921.47;;;15.62;100.00
62791;BME280;48830;53.426;10.300;2022-09-09T07:01:38;100917.16;;;15.72;100.00
62791;BME280;48830;53.426;10.300;2022-09-09T07:04:09;100911.91;;;15.84;100.00
62791;BME280;48830;53.426;10.300;2022-09-09T07:06:43;100913.63;;;15.88;100.00
62791;BME280;48830;53.426;10.300;2022-09-09T07:09:13;100914.44;;;15.99;100.00
62791;BME280;48830;53.426;10.300;2022-09-09T07:11:49;100920.38;;;16.17;100.00
62791;BME280;48830;53.426;10.300;2022-09-09T07:14:17;100920.31;;;16.29;100.00
62791;BME280;48830;53.426;10.300;2022-09-09T07:16:46;100918.34;;;16.62;100.00
62791;BME280;48830;53.426;10.300;2022-09-09T07:19:14;100920.56;;;17.14;100.00
62791;BME280;48830;53.426;10.300;2022-09-09T07:21:41;100920.25;;;17.43;100.00
62791;BME280;48830;53.426;10.300;2022-09-09T07:24:08;100914.09;;;17.51;100.00
62791;BME280;48830;53.426;10.300;2022-09-09T07:26:35;100917.34;;;17.72;100.00
62791;BME280;48830;53.426;10.300;2022-09-09T07:29:02;100921.94;;;17.47;100.00
62791;BME280;48830;53.426;10.300;2022-09-09T07:31:31;100922.72;;;17.53;100.00
62791;BME280;48830;53.426;10.300;2022-09-09T07:33:57;100933.31;;;17.38;100.00
62791;BME280;48830;53.426;10.300;2022-09-09T07:36:26;100927.84;;;17.59;99.91
62791;BME280;48830;53.426;10.300;2022-09-09T07:38:56;100932.72;;;17.93;97.77
62791;BME280;48830;53.426;10.300;2022-09-09T07:41:24;100932.50;;;18.08;98.23
62791;BME280;48830;53.426;10.300;2022-09-09T07:43:51;100934.50;;;18.50;96.67
62791;BME280;48830;53.426;10.300;2022-09-09T07:46:21;100941.84;;;18.25;96.33
62791;BME280;48830;53.426;10.300;2022-09-09T07:48:48;100939.38;;;18.13;96.14
62791;BME280;48830;53.426;10.300;2022-09-09T07:51:20;100942.34;;;17.87;97.13
62791;BME280;48830;53.426;10.300;2022-09-09T07:53:53;100945.00;;;17.79;97.16
62791;BME280;48830;53.426;10.300;2022-09-09T07:56:19;100944.22;;;17.71;97.89
62791;BME280;48830;53.426;10.300;2022-09-09T07:58:48;100946.66;;;17.88;98.36
62791;BME280;48830;53.426;10.300;2022-09-09T08:01:20;100946.78;;;17.75;98.01
62791;BME280;48830;53.426;10.300;2022-09-09T08:03:53;100952.19;;;17.55;97.62
62791;BME280;48830;53.426;10.300;2022-09-09T08:06:18;100947.75;;;17.65;99.17
62791;BME280;48830;53.426;10.300;2022-09-09T08:08:44;100952.19;;;17.55;98.84
62791;BME280;48830;53.426;10.300;2022-09-09T08:11:14;100957.19;;;17.77;99.97
62791;BME280;48830;53.426;10.300;2022-09-09T08:13:43;100955.44;;;17.74;98.82
62791;BME280;48830;53.426;10.300;2022-09-09T08:16:15;100952.88;;;17.73;99.68
62791;BME280;48830;53.426;10.300;2022-09-09T08:18:41;100957.19;;;17.74;99.57
62791;BME280;48830;53.426;10.300;2022-09-09T08:21:12;100960.53;;;17.85;97.80
62791;BME280;48830;53.426;10.300;2022-09-09T08:23:40;100957.81;;;17.96;98.92
62791;BME280;48830;53.426;10.300;2022-09-09T08:26:14;100962.16;;;17.95;98.66
62791;BME280;48830;53.426;10.300;2022-09-09T08:28:41;100963.88;;;17.98;98.55
62791;BME280;48830;53.426;10.300;2022-09-09T08:31:13;100968.97;;;18.05;97.99
62791;BME280;48830;53.426;10.300;2022-09-09T08:33:40;100960.31;;;18.02;97.67
62791;BME280;48830;53.426;10.300;2022-09-09T08:36:09;100958.44;;;18.15;98.02
62791;BME280;48830;53.426;10.300;2022-09-09T08:38:36;100960.94;;;18.22;95.59
62791;BME280;48830;53.426;10.300;2022-09-09T08:41:33;100961.88;;;18.17;94.65
62791;BME280;48830;53.426;10.300;2022-09-09T08:52:01;100966.22;;;18.78;92.13
62791;BME280;48830;53.426;10.300;2022-09-09T08:54:33;100962.88;;;18.70;92.26
62791;BME280;48830;53.426;10.300;2022-09-09T08:57:00;100967.97;;;18.79;91.91
62791;BME280;48830;53.426;10.300;2022-09-09T08:59:25;100979.53;;;19.13;91.74
62791;BME280;48830;53.426;10.300;2022-09-09T09:02:17;100980.53;;;19.05;90.92
62791;BME280;48830;53.426;10.300;2022-09-09T09:04:58;100982.56;;;19.40;89.64
62791;BME280;48830;53.426;10.300;2022-09-09T09:10:36;100989.38;;;19.47;86.01
62791;BME280;48830;53.426;10.300;2022-09-09T09:13:12;100983.63;;;20.19;84.37
62791;BME280;48830;53.426;10.300;2022-09-09T09:15:41;100990.25;;;20.75;82.33
62791;BME280;48830;53.426;10.300;2022-09-09T09:18:11;100996.69;;;20.60;80.92
62791;BME280;48830;53.426;10.300;2022-09-09T09:23:34;100998.66;;;21.57;77.67
62791;BME280;48830;53.426;10.300;2022-09-09T09:26:06;100990.03;;;21.86;78.41
62791;BME280;48830;53.426;10.300;2022-09-09T09:28:36;100993.75;;;22.38;75.93
62791;BME280;48830;53.426;10.300;2022-09-09T09:31:11;100988.31;;;21.85;74.92
62791;BME280;48830;53.426;10.300;2022-09-09T09:33:52;100988.38;;;21.82;76.38
62791;BME280;48830;53.426;10.300;2022-09-09T09:36:37;100981.88;;;25.20;66.30
62791;BME280;48830;53.426;10.300;2022-09-09T09:39:04;100984.88;;;29.14;52.37
62791;BME280;48830;53.426;10.300;2022-09-09T09:41:42;100982.66;;;32.68;44.68
62791;BME280;48830;53.426;10.300;2022-09-09T09:44:39;100978.53;;;32.63;44.38
62791;BME280;48830;53.426;10.300;2022-09-09T09:47:22;100975.25;;;35.28;39.85
62791;BME280;48830;53.426;10.300;2022-09-09T09:50:00;100964.53;;;32.12;42.31
62791;BME280;48830;53.426;10.300;2022-09-09T09:52:30;100974.41;;;27.53;53.36
62791;BME280;48830;53.426;10.300;2022-09-09T09:55:03;100976.66;;;27.61;55.08
62791;BME280;48830;53.426;10.300;2022-09-09T09:57:30;100967.69;;;28.91;53.86
62791;BME280;48830;53.426;10.300;2022-09-09T10:02:48;100966.66;;;26.07;58.99
62791;BME280;48830;53.426;10.300;2022-09-09T10:05:25;100969.03;;;25.12;62.29
62791;BME280;48830;53.426;10.300;2022-09-09T10:08:08;100970.06;;;25.30;61.56
62791;BME280;48830;53.426;10.300;2022-09-09T10:16:13;100975.97;;;23.80;66.80
62791;BME280;48830;53.426;10.300;2022-09-09T10:18:54;100977.22;;;24.41;65.77
62791;BME280;48830;53.426;10.300;2022-09-09T10:22:28;100974.25;;;24.48;65.55
62791;BME280;48830;53.426;10.300;2022-09-09T10:28:03;100966.41;;;23.78;66.44
62791;BME280;48830;53.426;10.300;2022-09-09T10:36:25;100964.84;;;24.43;65.10
62791;BME280;48830;53.426;10.300;2022-09-09T10:39:01;100961.38;;;24.19;65.25
62791;BME280;48830;53.426;10.300;2022-09-09T10:41:42;100962.84;;;23.80;66.72
62791;BME280;48830;53.426;10.300;2022-09-09T10:44:35;100962.66;;;23.85;68.19
62791;BME280;48830;53.426;10.300;2022-09-09T10:47:17;100960.75;;;23.65;67.37
62791;BME280;48830;53.426;10.300;2022-09-09T10:50:13;100955.06;;;23.77;67.54
62791;BME280;48830;53.426;10.300;2022-09-09T10:55:40;100953.81;;;24.11;66.99
62791;BME280;48830;53.426;10.300;2022-09-09T10:58:17;100959.38;;;24.25;66.69
62791;BME280;48830;53.426;10.300;2022-09-09T11:00:50;100962.22;;;24.43;64.92
62791;BME280;48830;53.426;10.300;2022-09-09T11:03:28;100948.38;;;24.61;63.87
62791;BME280;48830;53.426;10.300;2022-09-09T11:06:05;100939.66;;;24.59;64.83
62791;BME280;48830;53.426;10.300;2022-09-09T11:08:34;100938.47;;;24.46;64.24
62791;BME280;48830;53.426;10.300;2022-09-09T11:13:42;100936.50;;;25.35;60.53
62791;BME280;48830;53.426;10.300;2022-09-09T11:16:39;100931.25;;;25.15;61.62
62791;BME280;48830;53.426;10.300;2022-09-09T11:21:49;100938.03;;;24.99;61.91
62791;BME280;48830;53.426;10.300;2022-09-09T11:24:44;100948.72;;;25.16;62.29
62791;BME280;48830;53.426;10.300;2022-09-09T11:27:27;100955.97;;;25.11;60.99
62791;BME280;48830;53.426;10.300;2022-09-09T11:30:20;100957.97;;;25.45;61.80
62791;BME280;48830;53.426;10.300;2022-09-09T11:39:02;100952.38;;;24.70;63.38
62791;BME280;48830;53.426;10.300;2022-09-09T11:41:34;100957.91;;;24.18;64.04
62791;BME280;48830;53.426;10.300;2022-09-09T11:44:11;100956.91;;;23.75;65.29
62791;BME280;48830;53.426;10.300;2022-09-09T11:46:38;100955.06;;;23.77;66.43
62791;BME280;48830;53.426;10.300;2022-09-09T11:49:40;100956.09;;;22.97;70.18
62791;BME280;48830;53.426;10.300;2022-09-09T11:52:45;100963.75;;;22.48;71.67
62791;BME280;48830;53.426;10.300;2022-09-09T11:55:25;100961.78;;;22.29;72.12
62791;BME280;48830;53.426;10.300;2022-09-09T11:57:59;100958.91;;;22.36;72.46
62791;BME280;48830;53.426;10.300;2022-09-09T12:00:45;100953.91;;;22.29;75.94
62791;BME280;48830;53.426;10.300;2022-09-09T12:03:44;100960.91;;;22.28;77.51
62791;BME280;48830;53.426;10.300;2022-09-09T12:08:42;100961.59;;;22.04;78.19
62791;BME280;48830;53.426;10.300;2022-09-09T12:11:08;100960.88;;;21.98;78.10
62791;BME280;48830;53.426;10.300;2022-09-09T12:13:34;100959.13;;;21.99;77.70
62791;BME280;48830;53.426;10.300;2022-09-09T12:16:00;100973.31;;;22.21;79.39
62791;BME280;48830;53.426;10.300;2022-09-09T12:18:38;100970.81;;;22.18;77.53
62791;BME280;48830;53.426;10.300;2022-09-09T12:23:52;100963.38;;;22.33;75.48
62791;BME280;48830;53.426;10.300;2022-09-09T12:26:30;100958.00;;;22.93;76.15
62791;BME280;48830;53.426;10.300;2022-09-09T12:31:38;100965.22;;;23.12;73.66
62791;BME280;48830;53.426;10.300;2022-09-09T12:37:33;100960.84;;;23.12;73.80
62791;BME280;48830;53.426;10.300;2022-09-09T12:40:20;100967.34;;;23.00;73.87
62791;BME280;48830;53.426;10.300;2022-09-09T12:42:46;100964.34;;;22.58;74.67
62791;BME280;48830;53.426;10.300;2022-09-09T12:45:20;100961.72;;;23.38;73.78
62791;BME280;48830;53.426;10.300;2022-09-09T12:47:53;100957.34;;;23.62;71.47
62791;BME280;48830;53.426;10.300;2022-09-09T12:50:30;100954.88;;;24.29;67.45
62791;BME280;48830;53.426;10.300;2022-09-09T12:52:59;100950.25;;;24.57;65.91
62791;BME280;48830;53.426;10.300;2022-09-09T12:55:31;100958.88;;;24.83;63.86
62791;BME280;48830;53.426;10.300;2022-09-09T12:58:00;100960.41;;;24.67;66.94
62791;BME280;48830;53.426;10.300;2022-09-09T13:00:29;100954.16;;;24.02;68.82
62791;BME280;48830;53.426;10.300;2022-09-09T13:03:01;100947.31;;;23.74;68.63
62791;BME280;48830;53.426;10.300;2022-09-09T13:05:34;100952.50;;;23.26;68.61
62791;BME280;48830;53.426;10.300;2022-09-09T13:08:04;100949.31;;;22.91;68.57
62791;BME280;48830;53.426;10.300;2022-09-09T13:10:36;100958.22;;;23.12;68.62
62791;BME280;48830;53.426;10.300;2022-09-09T13:13:05;100951.19;;;22.88;67.60
62791;BME280;48830;53.426;10.300;2022-09-09T13:15:38;100955.63;;;22.84;66.97
62791;BME280;48830;53.426;10.300;2022-09-09T13:18:06;100956.31;;;22.91;66.92
62791;BME280;48830;53.426;10.300;2022-09-09T13:20:36;100962.66;;;22.84;68.40
62791;BME280;48830;53.426;10.300;2022-09-09T13:23:02;100964.97;;;22.66;69.19
62791;BME280;48830;53.426;10.300;2022-09-09T13:25:28;100967.88;;;22.57;70.12
62791;BME280;48830;53.426;10.300;2022-09-09T13:30:36;100994.97;;;21.95;73.35
62791;BME280;48830;53.426;10.300;2022-09-09T13:33:17;100988.63;;;21.73;74.72
62791;BME280;48830;53.426;10.300;2022-09-09T13:35:53;100994.81;;;21.70;75.26
62791;BME280;48830;53.426;10.300;2022-09-09T13:38:19;100995.00;;;21.64;74.90
62791;BME280;48830;53.426;10.300;2022-09-09T13:41:05;100985.88;;;21.46;75.40
62791;BME280;48830;53.426;10.300;2022-09-09T13:43:37;100998.63;;;21.24;76.47
62791;BME280;48830;53.426;10.300;2022-09-09T13:51:50;101001.59;;;21.09;79.24
62791;BME280;48830;53.426;10.300;2022-09-09T13:54:19;101010.06;;;20.85;80.34
62791;BME280;48830;53.426;10.300;2022-09-09T13:56:45;101008.25;;;20.87;80.68
62791;BME280;48830;53.426;10.300;2022-09-09T13:59:15;101005.63;;;20.87;81.79
62791;BME280;48830;53.426;10.300;2022-09-09T14:01:41;101004.03;;;20.83;81.88
62791;BME280;48830;53.426;10.300;2022-09-09T14:04:08;101000.31;;;20.54;83.65
62791;BME280;48830;53.426;10.300;2022-09-09T14:06:37;100993.66;;;20.39;85.54
62791;BME280;48830;53.426;10.300;2022-09-09T14:09:02;100985.75;;;20.02;89.39
62791;BME280;48830;53.426;10.300;2022-09-09T14:11:28;100985.72;;;20.04;89.57
62791;BME280;48830;53.426;10.300;2022-09-09T14:13:53;100981.69;;;19.87;91.92
62791;BME280;48830;53.426;10.300;2022-09-09T14:16:19;100983.00;;;19.65;93.49
62791;BME280;48830;53.426;10.300;2022-09-09T14:18:45;100989.47;;;19.41;95.16
62791;BME280;48830;53.426;10.300;2022-09-09T14:21:11;100990.44;;;19.35;96.13
62791;BME280;48830;53.426;10.300;2022-09-09T14:23:38;100987.31;;;18.59;93.61
62791;BME280;48830;53.426;10.300;2022-09-09T14:26:04;100978.91;;;18.39;89.33
62791;BME280;48830;53.426;10.300;2022-09-09T14:28:31;100971.91;;;18.44;88.05
62791;BME280;48830;53.426;10.300;2022-09-09T14:30:59;100967.47;;;18.51;87.16
62791;BME280;48830;53.426;10.300;2022-09-09T14:33:25;100964.66;;;18.65;87.67
62791;BME280;48830;53.426;10.300;2022-09-09T14:35:56;100962.16;;;18.58;89.53